Gatchel, Indiana
Current Conditions -  °F | °C
As of 8:35 AM on Friday 28 Nov 2014 (Local Time) from KHNB Reporting Station
Clear Clear  
Wind Chill: 19°   Ceiling: Unl
Heat Index: 28°   Visibility: 10mi
Dew Point: 21°   Wind: 10mph
Humidity: 74%   Direction: 180°S
Pressure: 30.38"   Gusts: NA
Location:  38.0217°N, 86.7099°W
Report Text: KHNB 281435Z AUTO 18009KT 10SM CLR M02/M06 A3038 RMK AO1
Loading
Personal Weather Stations






























Interactive Weather Map New forecast layout! Learn more

10-Day Weather Forecast

Advertisements
Track Severe Weather on mobile